sensor_id;sensor_type;location;lat;lon;timestamp;pressure;altitude;pressure_sealevel;temperature;humidity
11413;BME280;5762;43.256;26.960;2023-02-16T00:01:24;101066.21;;;1.09;100.00
11413;BME280;5762;43.256;26.960;2023-02-16T00:03:52;101069.20;;;1.16;100.00
11413;BME280;5762;43.256;26.960;2023-02-16T00:06:22;101069.94;;;1.27;100.00
11413;BME280;5762;43.256;26.960;2023-02-16T00:08:51;101066.45;;;1.33;100.00
11413;BME280;5762;43.256;26.960;2023-02-16T00:11:27;101064.27;;;1.40;100.00
11413;BME280;5762;43.256;26.960;2023-02-16T00:14:09;101070.64;;;1.52;100.00
11413;BME280;5762;43.256;26.960;2023-02-16T00:16:38;101068.08;;;1.61;100.00
11413;BME280;5762;43.256;26.960;2023-02-16T00:19:16;101060.69;;;1.63;100.00
11413;BME280;5762;43.256;26.960;2023-02-16T00:21:45;101064.08;;;1.61;100.00
11413;BME280;5762;43.256;26.960;2023-02-16T00:24:13;101066.84;;;1.63;100.00
11413;BME280;5762;43.256;26.960;2023-02-16T00:26:41;101060.69;;;1.43;100.00
11413;BME280;5762;43.256;26.960;2023-02-16T00:29:23;101065.72;;;1.55;100.00
11413;BME280;5762;43.256;26.960;2023-02-16T00:31:51;101059.93;;;1.78;100.00
11413;BME280;5762;43.256;26.960;2023-02-16T00:34:30;101058.94;;;1.73;100.00
11413;BME280;5762;43.256;26.960;2023-02-16T00:37:02;101058.22;;;1.68;100.00
11413;BME280;5762;43.256;26.960;2023-02-16T00:39:31;101054.22;;;1.68;100.00
11413;BME280;5762;43.256;26.960;2023-02-16T00:42:00;101061.50;;;1.44;100.00
11413;BME280;5762;43.256;26.960;2023-02-16T00:44:35;101061.02;;;1.31;100.00
11413;BME280;5762;43.256;26.960;2023-02-16T00:49:49;101053.40;;;0.95;100.00
11413;BME280;5762;43.256;26.960;2023-02-16T00:54:59;101053.86;;;0.75;100.00
11413;BME280;5762;43.256;26.960;2023-02-16T00:57:29;101054.46;;;0.63;100.00
11413;BME280;5762;43.256;26.960;2023-02-16T00:59:59;101054.04;;;0.60;100.00
11413;BME280;5762;43.256;26.960;2023-02-16T01:02:27;101056.30;;;0.39;100.00
11413;BME280;5762;43.256;26.960;2023-02-16T01:04:55;101063.36;;;0.29;100.00
11413;BME280;5762;43.256;26.960;2023-02-16T01:07:24;101064.26;;;0.26;100.00
11413;BME280;5762;43.256;26.960;2023-02-16T01:10:09;101062.31;;;0.07;100.00
11413;BME280;5762;43.256;26.960;2023-02-16T01:12:54;101057.69;;;0.05;100.00
11413;BME280;5762;43.256;26.960;2023-02-16T01:15:23;101060.37;;;-0.13;100.00
11413;BME280;5762;43.256;26.960;2023-02-16T01:17:52;101057.78;;;-0.17;100.00
11413;BME280;5762;43.256;26.960;2023-02-16T01:20:21;101064.24;;;-0.15;100.00
11413;BME280;5762;43.256;26.960;2023-02-16T01:22:50;101061.63;;;-0.09;100.00
11413;BME280;5762;43.256;26.960;2023-02-16T01:25:18;101064.96;;;0.00;100.00
11413;BME280;5762;43.256;26.960;2023-02-16T01:27:48;101058.70;;;0.04;100.00
11413;BME280;5762;43.256;26.960;2023-02-16T01:30:17;101060.39;;;0.11;100.00
11413;BME280;5762;43.256;26.960;2023-02-16T01:32:46;101062.02;;;-0.12;100.00
11413;BME280;5762;43.256;26.960;2023-02-16T01:35:22;101066.17;;;-0.03;100.00
11413;BME280;5762;43.256;26.960;2023-02-16T01:37:50;101063.27;;;-0.08;100.00
11413;BME280;5762;43.256;26.960;2023-02-16T01:40:40;101057.55;;;-0.22;100.00
11413;BME280;5762;43.256;26.960;2023-02-16T01:42:51;101059.43;;;-0.16;100.00
11413;BME280;5762;43.256;26.960;2023-02-16T01:45:24;101054.73;;;-0.14;100.00
11413;BME280;5762;43.256;26.960;2023-02-16T01:47:51;101059.45;;;-0.26;100.00
11413;BME280;5762;43.256;26.960;2023-02-16T01:50:20;101061.15;;;-0.19;100.00
11413;BME280;5762;43.256;26.960;2023-02-16T01:52:51;101067.13;;;-0.27;100.00
11413;BME280;5762;43.256;26.960;2023-02-16T01:55:23;101062.38;;;-0.32;100.00
11413;BME280;5762;43.256;26.960;2023-02-16T01:57:58;101060.73;;;-0.33;100.00
11413;BME280;5762;43.256;26.960;2023-02-16T02:00:28;101061.47;;;-0.35;100.00
11413;BME280;5762;43.256;26.960;2023-02-16T02:02:57;101058.32;;;-0.28;100.00
11413;BME280;5762;43.256;26.960;2023-02-16T02:05:29;101053.69;;;-0.37;100.00
11413;BME280;5762;43.256;26.960;2023-02-16T02:10:40;101063.40;;;-0.33;100.00
11413;BME280;5762;43.256;26.960;2023-02-16T02:13:20;101053.55;;;-0.22;100.00
11413;BME280;5762;43.256;26.960;2023-02-16T02:15:48;101060.20;;;-0.22;100.00
11413;BME280;5762;43.256;26.960;2023-02-16T02:18:16;101054.89;;;-0.22;100.00
11413;BME280;5762;43.256;26.960;2023-02-16T02:20:50;101053.87;;;-0.21;100.00
11413;BME280;5762;43.256;26.960;2023-02-16T02:23:38;101047.13;;;-0.34;100.00
11413;BME280;5762;43.256;26.960;2023-02-16T02:26:10;101047.17;;;-0.27;100.00
11413;BME280;5762;43.256;26.960;2023-02-16T02:28:36;101049.33;;;-0.27;100.00
11413;BME280;5762;43.256;26.960;2023-02-16T02:31:05;101050.39;;;-0.39;100.00
11413;BME280;5762;43.256;26.960;2023-02-16T02:36:08;101050.14;;;-0.26;100.00
11413;BME280;5762;43.256;26.960;2023-02-16T02:38:52;101054.09;;;-0.33;100.00
11413;BME280;5762;43.256;26.960;2023-02-16T02:43:53;101038.38;;;-0.45;100.00
11413;BME280;5762;43.256;26.960;2023-02-16T02:46:30;101041.73;;;-0.47;100.00
11413;BME280;5762;43.256;26.960;2023-02-16T02:48:59;101043.84;;;-0.64;100.00
11413;BME280;5762;43.256;26.960;2023-02-16T02:51:27;101040.56;;;-0.66;100.00
11413;BME280;5762;43.256;26.960;2023-02-16T02:54:04;101046.95;;;-0.60;100.00
11413;BME280;5762;43.256;26.960;2023-02-16T02:59:41;101042.70;;;-0.65;100.00
11413;BME280;5762;43.256;26.960;2023-02-16T03:02:25;101042.44;;;-0.88;100.00
11413;BME280;5762;43.256;26.960;2023-02-16T03:04:55;101051.80;;;-0.92;100.00
11413;BME280;5762;43.256;26.960;2023-02-16T03:07:24;101050.91;;;-0.99;100.00
11413;BME280;5762;43.256;26.960;2023-02-16T03:09:54;101056.50;;;-1.15;100.00
11413;BME280;5762;43.256;26.960;2023-02-16T03:12:23;101055.14;;;-1.47;100.00
11413;BME280;5762;43.256;26.960;2023-02-16T03:15:08;101057.87;;;-1.66;100.00
11413;BME280;5762;43.256;26.960;2023-02-16T03:17:38;101064.69;;;-1.67;100.00
11413;BME280;5762;43.256;26.960;2023-02-16T03:20:24;101070.80;;;-1.52;100.00
11413;BME280;5762;43.256;26.960;2023-02-16T03:23:09;101070.30;;;-1.52;100.00
11413;BME280;5762;43.256;26.960;2023-02-16T03:25:55;101073.30;;;-1.40;100.00
11413;BME280;5762;43.256;26.960;2023-02-16T03:28:41;101078.73;;;-1.27;100.00
11413;BME280;5762;43.256;26.960;2023-02-16T03:31:28;101081.36;;;-1.38;100.00
11413;BME280;5762;43.256;26.960;2023-02-16T03:33:56;101082.64;;;-1.33;100.00
11413;BME280;5762;43.256;26.960;2023-02-16T03:36:26;101081.08;;;-1.28;100.00
11413;BME280;5762;43.256;26.960;2023-02-16T03:38:54;101078.66;;;-1.33;100.00
11413;BME280;5762;43.256;26.960;2023-02-16T03:41:23;101086.31;;;-1.35;100.00
11413;BME280;5762;43.256;26.960;2023-02-16T03:43:51;101077.59;;;-1.39;100.00
11413;BME280;5762;43.256;26.960;2023-02-16T03:46:20;101080.81;;;-1.44;100.00
11413;BME280;5762;43.256;26.960;2023-02-16T03:48:49;101079.54;;;-1.48;100.00
11413;BME280;5762;43.256;26.960;2023-02-16T03:51:17;101075.55;;;-1.48;100.00
11413;BME280;5762;43.256;26.960;2023-02-16T03:53:45;101081.27;;;-1.40;100.00
11413;BME280;5762;43.256;26.960;2023-02-16T03:56:15;101072.63;;;-1.53;100.00
11413;BME280;5762;43.256;26.960;2023-02-16T03:58:43;101075.29;;;-1.78;100.00
11413;BME280;5762;43.256;26.960;2023-02-16T04:01:12;101075.84;;;-1.83;100.00
11413;BME280;5762;43.256;26.960;2023-02-16T04:03:40;101075.02;;;-1.83;100.00
11413;BME280;5762;43.256;26.960;2023-02-16T04:06:08;101076.80;;;-1.80;100.00
11413;BME280;5762;43.256;26.960;2023-02-16T04:08:37;101080.28;;;-1.79;100.00
11413;BME280;5762;43.256;26.960;2023-02-16T04:11:06;101082.10;;;-1.94;100.00
11413;BME280;5762;43.256;26.960;2023-02-16T04:13:51;101081.01;;;-1.85;100.00
11413;BME280;5762;43.256;26.960;2023-02-16T04:16:19;101080.41;;;-1.91;100.00
11413;BME280;5762;43.256;26.960;2023-02-16T04:18:47;101081.98;;;-2.12;100.00
11413;BME280;5762;43.256;26.960;2023-02-16T04:21:15;101085.39;;;-2.07;100.00
11413;BME280;5762;43.256;26.960;2023-02-16T04:23:44;101089.83;;;-2.04;100.00
11413;BME280;5762;43.256;26.960;2023-02-16T04:26:13;101092.53;;;-1.93;100.00
11413;BME280;5762;43.256;26.960;2023-02-16T04:28:41;101103.28;;;-1.90;100.00
11413;BME280;5762;43.256;26.960;2023-02-16T04:31:09;101092.22;;;-1.94;100.00
11413;BME280;5762;43.256;26.960;2023-02-16T04:33:38;101097.34;;;-1.92;100.00
11413;BME280;5762;43.256;26.960;2023-02-16T04:36:07;101094.32;;;-1.89;100.00
11413;BME280;5762;43.256;26.960;2023-02-16T04:38:36;101095.65;;;-1.89;100.00
11413;BME280;5762;43.256;26.960;2023-02-16T04:41:05;101096.02;;;-1.92;100.00
11413;BME280;5762;43.256;26.960;2023-02-16T04:43:34;101097.47;;;-1.90;100.00
11413;BME280;5762;43.256;26.960;2023-02-16T04:46:02;101105.66;;;-1.95;100.00
11413;BME280;5762;43.256;26.960;2023-02-16T04:48:31;101096.89;;;-2.11;100.00
11413;BME280;5762;43.256;26.960;2023-02-16T04:51:02;101099.08;;;-2.14;100.00
11413;BME280;5762;43.256;26.960;2023-02-16T04:53:30;101098.77;;;-2.15;100.00
11413;BME280;5762;43.256;26.960;2023-02-16T04:55:58;101099.36;;;-2.09;100.00
11413;BME280;5762;43.256;26.960;2023-02-16T04:58:27;101095.42;;;-2.13;100.00
11413;BME280;5762;43.256;26.960;2023-02-16T05:00:55;101108.12;;;-2.23;100.00
11413;BME280;5762;43.256;26.960;2023-02-16T05:03:24;101108.86;;;-2.15;100.00
11413;BME280;5762;43.256;26.960;2023-02-16T05:05:53;101110.55;;;-2.18;100.00
11413;BME280;5762;43.256;26.960;2023-02-16T05:08:22;101107.58;;;-2.19;100.00
11413;BME280;5762;43.256;26.960;2023-02-16T05:10:51;101101.48;;;-2.42;100.00
11413;BME280;5762;43.256;26.960;2023-02-16T05:13:36;101110.83;;;-2.46;100.00
11413;BME280;5762;43.256;26.960;2023-02-16T05:16:25;101116.71;;;-2.40;100.00
11413;BME280;5762;43.256;26.960;2023-02-16T05:18:50;101121.05;;;-2.24;100.00
11413;BME280;5762;43.256;26.960;2023-02-16T05:21:18;101125.42;;;-2.13;100.00
11413;BME280;5762;43.256;26.960;2023-02-16T05:26:27;101133.02;;;-1.95;100.00
11413;BME280;5762;43.256;26.960;2023-02-16T05:28:55;101138.73;;;-1.87;100.00
11413;BME280;5762;43.256;26.960;2023-02-16T05:31:24;101146.48;;;-1.82;100.00
11413;BME280;5762;43.256;26.960;2023-02-16T05:33:52;101149.27;;;-1.79;100.00
11413;BME280;5762;43.256;26.960;2023-02-16T05:36:20;101145.11;;;-1.78;100.00
11413;BME280;5762;43.256;26.960;2023-02-16T05:38:49;101149.13;;;-1.82;100.00
11413;BME280;5762;43.256;26.960;2023-02-16T05:41:17;101155.80;;;-1.86;100.00
11413;BME280;5762;43.256;26.960;2023-02-16T05:43:56;101156.60;;;-2.00;100.00
11413;BME280;5762;43.256;26.960;2023-02-16T05:46:25;101153.02;;;-2.07;100.00
11413;BME280;5762;43.256;26.960;2023-02-16T05:48:54;101146.14;;;-2.12;100.00
11413;BME280;5762;43.256;26.960;2023-02-16T05:51:23;101156.67;;;-2.23;100.00
11413;BME280;5762;43.256;26.960;2023-02-16T05:53:51;101151.52;;;-2.20;100.00
11413;BME280;5762;43.256;26.960;2023-02-16T05:56:19;101153.13;;;-2.15;100.00
11413;BME280;5762;43.256;26.960;2023-02-16T05:58:48;101157.65;;;-2.05;100.00
11413;BME280;5762;43.256;26.960;2023-02-16T06:01:16;101159.97;;;-1.87;100.00
11413;BME280;5762;43.256;26.960;2023-02-16T06:03:44;101160.09;;;-1.70;100.00
11413;BME280;5762;43.256;26.960;2023-02-16T06:06:12;101161.88;;;-1.66;100.00
11413;BME280;5762;43.256;26.960;2023-02-16T06:08:40;101164.03;;;-1.66;100.00
11413;BME280;5762;43.256;26.960;2023-02-16T06:11:08;101165.23;;;-1.54;100.00
11413;BME280;5762;43.256;26.960;2023-02-16T06:13:37;101168.30;;;-1.46;100.00
11413;BME280;5762;43.256;26.960;2023-02-16T06:16:06;101172.24;;;-1.31;100.00
11413;BME280;5762;43.256;26.960;2023-02-16T06:18:35;101173.70;;;-1.29;100.00
11413;BME280;5762;43.256;26.960;2023-02-16T06:21:03;101172.87;;;-1.15;100.00
11413;BME280;5762;43.256;26.960;2023-02-16T06:23:32;101177.13;;;-0.99;100.00
11413;BME280;5762;43.256;26.960;2023-02-16T06:26:06;101172.84;;;-0.89;100.00
11413;BME280;5762;43.256;26.960;2023-02-16T06:28:30;101174.48;;;-0.88;100.00
11413;BME280;5762;43.256;26.960;2023-02-16T06:30:59;101172.78;;;-0.85;100.00
11413;BME280;5762;43.256;26.960;2023-02-16T06:33:28;101177.43;;;-0.73;100.00
11413;BME280;5762;43.256;26.960;2023-02-16T06:35:56;101175.07;;;-0.61;100.00
11413;BME280;5762;43.256;26.960;2023-02-16T06:38:25;101177.54;;;-0.59;100.00
11413;BME280;5762;43.256;26.960;2023-02-16T06:40:53;101173.25;;;-0.39;100.00
11413;BME280;5762;43.256;26.960;2023-02-16T06:43:21;101166.75;;;-0.30;100.00
11413;BME280;5762;43.256;26.960;2023-02-16T06:45:51;101172.77;;;-0.21;100.00
11413;BME280;5762;43.256;26.960;2023-02-16T06:48:19;101173.53;;;0.00;100.00
11413;BME280;5762;43.256;26.960;2023-02-16T06:50:47;101170.59;;;0.17;100.00
11413;BME280;5762;43.256;26.960;2023-02-16T06:53:16;101169.52;;;0.11;100.00
11413;BME280;5762;43.256;26.960;2023-02-16T06:55:44;101166.52;;;0.21;100.00
11413;BME280;5762;43.256;26.960;2023-02-16T06:58:13;101161.20;;;0.21;100.00
11413;BME280;5762;43.256;26.960;2023-02-16T07:00:41;101159.84;;;0.38;100.00
11413;BME280;5762;43.256;26.960;2023-02-16T07:03:10;101155.34;;;0.56;100.00
11413;BME280;5762;43.256;26.960;2023-02-16T07:05:39;101156.05;;;0.78;100.00
11413;BME280;5762;43.256;26.960;2023-02-16T07:08:07;101155.22;;;1.01;100.00
11413;BME280;5762;43.256;26.960;2023-02-16T07:10:36;101154.02;;;1.17;100.00
11413;BME280;5762;43.256;26.960;2023-02-16T07:13:05;101152.31;;;1.33;100.00
11413;BME280;5762;43.256;26.960;2023-02-16T07:15:33;101148.82;;;1.46;100.00
11413;BME280;5762;43.256;26.960;2023-02-16T07:18:02;101139.70;;;1.57;100.00
11413;BME280;5762;43.256;26.960;2023-02-16T07:20:30;101139.00;;;1.73;100.00
11413;BME280;5762;43.256;26.960;2023-02-16T07:22:59;101132.33;;;1.66;100.00
11413;BME280;5762;43.256;26.960;2023-02-16T07:25:28;101127.38;;;1.76;100.00
11413;BME280;5762;43.256;26.960;2023-02-16T07:27:57;101126.04;;;1.89;100.00
11413;BME280;5762;43.256;26.960;2023-02-16T07:30:26;101121.93;;;1.93;100.00
11413;BME280;5762;43.256;26.960;2023-02-16T07:32:54;101115.87;;;2.02;100.00
11413;BME280;5762;43.256;26.960;2023-02-16T07:35:23;101116.44;;;2.11;100.00
11413;BME280;5762;43.256;26.960;2023-02-16T07:37:52;101119.72;;;2.19;100.00
11413;BME280;5762;43.256;26.960;2023-02-16T07:40:20;101113.95;;;2.29;100.00
11413;BME280;5762;43.256;26.960;2023-02-16T07:42:49;101107.49;;;2.50;100.00
11413;BME280;5762;43.256;26.960;2023-02-16T07:45:17;101108.38;;;2.59;100.00
11413;BME280;5762;43.256;26.960;2023-02-16T07:47:45;101102.62;;;2.62;100.00
11413;BME280;5762;43.256;26.960;2023-02-16T07:50:14;101095.39;;;2.69;100.00
11413;BME280;5762;43.256;26.960;2023-02-16T07:52:42;101094.39;;;2.80;100.00
11413;BME280;5762;43.256;26.960;2023-02-16T07:55:11;101089.89;;;2.96;100.00
11413;BME280;5762;43.256;26.960;2023-02-16T07:57:39;101082.23;;;3.06;100.00
11413;BME280;5762;43.256;26.960;2023-02-16T08:00:08;101087.87;;;3.07;100.00
11413;BME280;5762;43.256;26.960;2023-02-16T08:02:38;101082.27;;;2.99;100.00
11413;BME280;5762;43.256;26.960;2023-02-16T08:05:07;101079.41;;;2.94;100.00
11413;BME280;5762;43.256;26.960;2023-02-16T08:07:36;101073.67;;;2.91;100.00
11413;BME280;5762;43.256;26.960;2023-02-16T08:10:05;101081.70;;;2.91;100.00
11413;BME280;5762;43.256;26.960;2023-02-16T08:12:35;101080.23;;;2.95;100.00
11413;BME280;5762;43.256;26.960;2023-02-16T08:15:03;101083.91;;;3.00;100.00
11413;BME280;5762;43.256;26.960;2023-02-16T08:17:33;101082.98;;;3.13;100.00
11413;BME280;5762;43.256;26.960;2023-02-16T08:20:01;101075.81;;;3.39;100.00
11413;BME280;5762;43.256;26.960;2023-02-16T08:22:30;101075.08;;;3.50;100.00
11413;BME280;5762;43.256;26.960;2023-02-16T08:24:58;101072.52;;;3.61;100.00
11413;BME280;5762;43.256;26.960;2023-02-16T08:27:27;101074.84;;;3.67;100.00
11413;BME280;5762;43.256;26.960;2023-02-16T08:29:56;101071.67;;;3.77;100.00
11413;BME280;5762;43.256;26.960;2023-02-16T08:32:25;101060.87;;;3.83;100.00
11413;BME280;5762;43.256;26.960;2023-02-16T08:34:53;101061.17;;;3.84;100.00
11413;BME280;5762;43.256;26.960;2023-02-16T08:37:22;101056.12;;;3.85;100.00
11413;BME280;5762;43.256;26.960;2023-02-16T08:39:52;101056.44;;;4.04;100.00
11413;BME280;5762;43.256;26.960;2023-02-16T08:42:21;101055.48;;;4.08;100.00
11413;BME280;5762;43.256;26.960;2023-02-16T08:44:49;101052.55;;;4.19;100.00
11413;BME280;5762;43.256;26.960;2023-02-16T08:47:18;101060.30;;;4.27;100.00
11413;BME280;5762;43.256;26.960;2023-02-16T08:49:47;101059.55;;;4.29;100.00
11413;BME280;5762;43.256;26.960;2023-02-16T08:52:16;101055.53;;;4.29;100.00
11413;BME280;5762;43.256;26.960;2023-02-16T08:54:45;101053.10;;;4.66;100.00
11413;BME280;5762;43.256;26.960;2023-02-16T08:57:14;101056.80;;;4.84;100.00
11413;BME280;5762;43.256;26.960;2023-02-16T08:59:43;101058.42;;;5.05;100.00
11413;BME280;5762;43.256;26.960;2023-02-16T09:02:11;101056.99;;;5.24;100.00
11413;BME280;5762;43.256;26.960;2023-02-16T09:04:40;101054.17;;;5.39;100.00
11413;BME280;5762;43.256;26.960;2023-02-16T09:07:08;101053.84;;;5.48;100.00
11413;BME280;5762;43.256;26.960;2023-02-16T09:09:37;101052.12;;;5.56;100.00
11413;BME280;5762;43.256;26.960;2023-02-16T09:12:06;101045.95;;;5.67;100.00
11413;BME280;5762;43.256;26.960;2023-02-16T09:14:35;101040.93;;;5.82;100.00
11413;BME280;5762;43.256;26.960;2023-02-16T09:17:03;101041.34;;;5.88;100.00
11413;BME280;5762;43.256;26.960;2023-02-16T09:19:32;101039.65;;;5.85;100.00
11413;BME280;5762;43.256;26.960;2023-02-16T09:22:01;101043.85;;;5.92;100.00
11413;BME280;5762;43.256;26.960;2023-02-16T09:24:30;101042.91;;;5.98;100.00
11413;BME280;5762;43.256;26.960;2023-02-16T09:26:58;101041.62;;;6.13;100.00
11413;BME280;5762;43.256;26.960;2023-02-16T09:29:27;101039.81;;;6.30;100.00
11413;BME280;5762;43.256;26.960;2023-02-16T09:31:56;101041.63;;;6.27;100.00
11413;BME280;5762;43.256;26.960;2023-02-16T09:34:24;101038.67;;;6.40;100.00
11413;BME280;5762;43.256;26.960;2023-02-16T09:36:53;101030.68;;;6.57;100.00
11413;BME280;5762;43.256;26.960;2023-02-16T09:39:22;101029.45;;;6.64;100.00
11413;BME280;5762;43.256;26.960;2023-02-16T09:47:03;101012.78;;;7.10;100.00
11413;BME280;5762;43.256;26.960;2023-02-16T09:49:37;101014.48;;;7.33;100.00
11413;BME280;5762;43.256;26.960;2023-02-16T09:52:03;101005.84;;;7.48;100.00
11413;BME280;5762;43.256;26.960;2023-02-16T09:57:11;101006.55;;;7.79;100.00
11413;BME280;5762;43.256;26.960;2023-02-16T09:59:44;101008.11;;;7.75;100.00
11413;BME280;5762;43.256;26.960;2023-02-16T10:04:47;101003.75;;;7.91;100.00
11413;BME280;5762;43.256;26.960;2023-02-16T10:07:24;101003.97;;;8.08;100.00
11413;BME280;5762;43.256;26.960;2023-02-16T10:09:50;101002.97;;;8.15;100.00
11413;BME280;5762;43.256;26.960;2023-02-16T10:12:23;100994.45;;;8.23;100.00
11413;BME280;5762;43.256;26.960;2023-02-16T10:14:56;100996.14;;;8.29;100.00
11413;BME280;5762;43.256;26.960;2023-02-16T10:20:11;100991.75;;;8.71;100.00
11413;BME280;5762;43.256;26.960;2023-02-16T10:22:48;100980.88;;;8.91;100.00
11413;BME280;5762;43.256;26.960;2023-02-16T10:27:47;100975.30;;;9.05;100.00
11413;BME280;5762;43.256;26.960;2023-02-16T10:30:16;100979.77;;;9.21;100.00
11413;BME280;5762;43.256;26.960;2023-02-16T10:32:52;100979.09;;;9.41;100.00
11413;BME280;5762;43.256;26.960;2023-02-16T10:35:17;100979.11;;;9.44;100.00
11413;BME280;5762;43.256;26.960;2023-02-16T10:37:50;100973.46;;;9.48;100.00
11413;BME280;5762;43.256;26.960;2023-02-16T10:43:00;100967.58;;;9.56;100.00
11413;BME280;5762;43.256;26.960;2023-02-16T10:47:59;100954.40;;;9.72;100.00
11413;BME280;5762;43.256;26.960;2023-02-16T10:50:32;100960.73;;;9.93;100.00
11413;BME280;5762;43.256;26.960;2023-02-16T10:53:00;100960.23;;;10.06;100.00
11413;BME280;5762;43.256;26.960;2023-02-16T10:55:29;100952.77;;;10.26;100.00
11413;BME280;5762;43.256;26.960;2023-02-16T10:57:59;100949.02;;;10.39;100.00
11413;BME280;5762;43.256;26.960;2023-02-16T11:00:32;100950.09;;;10.46;100.00
11413;BME280;5762;43.256;26.960;2023-02-16T11:02:58;100941.70;;;10.45;100.00
11413;BME280;5762;43.256;26.960;2023-02-16T11:05:28;100945.24;;;10.53;100.00
11413;BME280;5762;43.256;26.960;2023-02-16T11:07:57;100935.80;;;10.68;100.00
11413;BME280;5762;43.256;26.960;2023-02-16T11:10:35;100936.05;;;10.74;100.00
11413;BME280;5762;43.256;26.960;2023-02-16T11:13:03;100927.67;;;10.81;100.00
11413;BME280;5762;43.256;26.960;2023-02-16T11:15:33;100924.96;;;10.86;100.00
11413;BME280;5762;43.256;26.960;2023-02-16T11:18:24;100916.57;;;10.93;100.00
11413;BME280;5762;43.256;26.960;2023-02-16T11:25:58;100909.20;;;11.36;100.00
11413;BME280;5762;43.256;26.960;2023-02-16T11:28:37;100902.43;;;11.31;100.00
11413;BME280;5762;43.256;26.960;2023-02-16T11:30:59;100901.63;;;11.28;100.00
11413;BME280;5762;43.256;26.960;2023-02-16T11:33:26;100894.84;;;11.33;100.00
11413;BME280;5762;43.256;26.960;2023-02-16T11:35:56;100893.97;;;11.46;100.00
11413;BME280;5762;43.256;26.960;2023-02-16T11:38:30;100897.17;;;11.68;100.00
11413;BME280;5762;43.256;26.960;2023-02-16T11:40:55;100896.36;;;11.78;100.00
11413;BME280;5762;43.256;26.960;2023-02-16T11:43:25;100891.18;;;11.76;100.00
11413;BME280;5762;43.256;26.960;2023-02-16T11:46:01;100887.66;;;11.75;90.15
11413;BME280;5762;43.256;26.960;2023-02-16T11:48:30;100891.43;;;11.82;76.90
11413;BME280;5762;43.256;26.960;2023-02-16T11:51:06;100889.14;;;12.10;60.88
11413;BME280;5762;43.256;26.960;2023-02-16T11:53:35;100888.31;;;12.12;57.07
11413;BME280;5762;43.256;26.960;2023-02-16T11:58:38;100875.10;;;11.95;62.46
11413;BME280;5762;43.256;26.960;2023-02-16T12:01:19;100865.29;;;12.04;67.40
11413;BME280;5762;43.256;26.960;2023-02-16T12:03:55;100863.73;;;12.34;56.70
11413;BME280;5762;43.256;26.960;2023-02-16T12:08:55;100856.40;;;12.69;52.91
11413;BME280;5762;43.256;26.960;2023-02-16T12:11:33;100855.59;;;12.68;54.14
11413;BME280;5762;43.256;26.960;2023-02-16T12:19:38;100841.09;;;12.81;51.79
11413;BME280;5762;43.256;26.960;2023-02-16T12:24:44;100835.06;;;12.84;51.33
11413;BME280;5762;43.256;26.960;2023-02-16T12:37:20;100818.62;;;13.49;51.50
11413;BME280;5762;43.256;26.960;2023-02-16T12:42:33;100810.77;;;13.66;49.03
11413;BME280;5762;43.256;26.960;2023-02-16T12:44:56;100813.88;;;13.57;46.66
11413;BME280;5762;43.256;26.960;2023-02-16T12:47:31;100813.30;;;13.60;49.78
11413;BME280;5762;43.256;26.960;2023-02-16T12:50:00;100814.00;;;13.50;47.81
11413;BME280;5762;43.256;26.960;2023-02-16T12:52:39;100802.89;;;13.46;51.08
11413;BME280;5762;43.256;26.960;2023-02-16T12:57:37;100801.47;;;13.51;47.09
11413;BME280;5762;43.256;26.960;2023-02-16T13:02:47;100798.95;;;13.76;51.12
11413;BME280;5762;43.256;26.960;2023-02-16T13:05:26;100798.48;;;13.50;45.84
11413;BME280;5762;43.256;26.960;2023-02-16T13:08:04;100798.36;;;13.58;49.09
11413;BME280;5762;43.256;26.960;2023-02-16T13:10:33;100796.52;;;13.53;47.56
11413;BME280;5762;43.256;26.960;2023-02-16T13:13:03;100787.74;;;13.59;51.69
11413;BME280;5762;43.256;26.960;2023-02-16T13:15:33;100782.98;;;13.69;55.06
11413;BME280;5762;43.256;26.960;2023-02-16T13:20:34;100781.72;;;13.99;53.96
11413;BME280;5762;43.256;26.960;2023-02-16T13:25:49;100775.28;;;14.12;50.68
11413;BME280;5762;43.256;26.960;2023-02-16T13:30:56;100771.08;;;13.84;50.86
11413;BME280;5762;43.256;26.960;2023-02-16T13:44:01;100758.09;;;13.79;46.75
11413;BME280;5762;43.256;26.960;2023-02-16T13:46:31;100757.19;;;13.86;46.94
11413;BME280;5762;43.256;26.960;2023-02-16T13:49:00;100750.50;;;13.94;47.93
11413;BME280;5762;43.256;26.960;2023-02-16T13:51:38;100751.30;;;13.95;48.77
11413;BME280;5762;43.256;26.960;2023-02-16T13:54:03;100756.38;;;14.01;47.07
11413;BME280;5762;43.256;26.960;2023-02-16T14:03:59;100748.58;;;13.79;45.42
11413;BME280;5762;43.256;26.960;2023-02-16T14:06:31;100741.66;;;13.67;45.67
11413;BME280;5762;43.256;26.960;2023-02-16T14:19:56;100729.53;;;13.95;48.46
11413;BME280;5762;43.256;26.960;2023-02-16T14:22:36;100732.80;;;13.78;50.06
11413;BME280;5762;43.256;26.960;2023-02-16T14:25:04;100731.06;;;13.66;50.76
11413;BME280;5762;43.256;26.960;2023-02-16T14:27:44;100725.31;;;13.30;49.67
11413;BME280;5762;43.256;26.960;2023-02-16T14:33:02;100725.50;;;13.15;50.95
11413;BME280;5762;43.256;26.960;2023-02-16T14:35:33;100727.08;;;12.94;51.86
11413;BME280;5762;43.256;26.960;2023-02-16T14:43:11;100717.59;;;12.70;54.59
11413;BME280;5762;43.256;26.960;2023-02-16T14:51:00;100711.07;;;12.45;60.19
11413;BME280;5762;43.256;26.960;2023-02-16T15:01:14;100705.88;;;12.17;63.04
11413;BME280;5762;43.256;26.960;2023-02-16T15:03:44;100703.72;;;12.17;63.67
11413;BME280;5762;43.256;26.960;2023-02-16T15:06:20;100704.75;;;12.23;64.53
11413;BME280;5762;43.256;26.960;2023-02-16T15:08:50;100701.88;;;12.12;64.38
11413;BME280;5762;43.256;26.960;2023-02-16T15:11:20;100707.69;;;11.98;64.71
11413;BME280;5762;43.256;26.960;2023-02-16T15:13:48;100701.96;;;12.02;65.32
11413;BME280;5762;43.256;26.960;2023-02-16T15:16:16;100702.48;;;12.04;65.10